Time;durP1;ratioP1;P1;durP2;ratioP2;P2;SDS_P1;SDS_P2;PMS_P1;PMS_P2;Temp;Humidity;BMP_temperature;BMP_pressure;BME280_temperature;BME280_humidity;BME280_pressure;Samples;Min_cycle;Max_cycle;Signal;HPM_P1;HPM_P2
2022/05/27 00:00:09;;;;;;;10.65;4.28;;;14.20;99.90;;;;;;5074934;28;20048;-83
2022/05/27 00:02:34;;;;;;;9.55;4.30;;;14.10;99.90;;;;;;5081540;28;20512;-83
2022/05/27 00:05:01;;;;;;;12.32;4.43;;;14.10;99.90;;;;;;5060229;28;20115;-85
2022/05/27 00:07:26;;;;;;;8.05;3.42;;;14.20;99.90;;;;;;5082639;28;20094;-82
2022/05/27 00:09:52;;;;;;;12.05;3.30;;;14.00;99.90;;;;;;5090334;28;20035;-83
2022/05/27 00:12:17;;;;;;;8.90;3.00;;;14.00;99.90;;;;;;5073506;28;20081;-83
2022/05/27 00:14:43;;;;;;;10.98;3.28;;;13.90;99.90;;;;;;5083072;28;20050;-82
2022/05/27 00:17:08;;;;;;;7.57;2.88;;;14.00;99.90;;;;;;5091709;28;20198;-82
2022/05/27 00:19:34;;;;;;;5.45;2.67;;;13.90;99.90;;;;;;5074396;28;20067;-82
2022/05/27 00:21:59;;;;;;;9.88;2.53;;;13.90;99.90;;;;;;5072598;28;20044;-82
2022/05/27 00:24:25;;;;;;;7.03;2.42;;;13.90;99.90;;;;;;5087620;28;20043;-82
2022/05/27 00:26:51;;;;;;;8.68;2.80;;;13.80;99.90;;;;;;5074201;28;20036;-82
2022/05/27 00:29:17;;;;;;;7.15;2.55;;;13.80;99.90;;;;;;5090605;28;20039;-83
2022/05/27 00:31:43;;;;;;;10.10;2.67;;;13.80;99.90;;;;;;5086470;28;20490;-81
2022/05/27 00:34:09;;;;;;;10.20;2.63;;;13.80;99.90;;;;;;5079244;28;20044;-81
2022/05/27 00:36:35;;;;;;;11.10;3.22;;;13.80;99.90;;;;;;5086474;28;20456;-82
2022/05/27 00:39:03;;;;;;;11.00;3.42;;;13.80;99.90;;;;;;5090252;28;20410;-82
2022/05/27 00:41:29;;;;;;;11.23;3.83;;;13.80;99.90;;;;;;5085953;28;20362;-82
2022/05/27 00:43:55;;;;;;;9.70;4.18;;;13.80;99.90;;;;;;5076557;28;20111;-81
2022/05/27 00:46:25;;;;;;;9.10;2.95;;;13.80;99.90;;;;;;5090905;28;20071;-81
2022/05/27 00:48:53;;;;;;;14.90;4.30;;;13.70;99.90;;;;;;5089515;28;20036;-81
2022/05/27 00:51:24;;;;;;;13.73;3.65;;;13.70;99.90;;;;;;5087272;28;20058;-83
2022/05/27 00:54:08;;;;;;;8.90;3.90;;;13.70;99.90;;;;;;5083185;28;20041;-82
2022/05/27 00:56:39;;;;;;;11.77;3.67;;;13.70;99.90;;;;;;5079549;28;20097;-82
2022/05/27 00:59:13;;;;;;;12.57;5.28;;;13.80;99.90;;;;;;5068663;28;20464;-82
2022/05/27 01:01:39;;;;;;;11.38;4.32;;;13.80;99.90;;;;;;5086353;28;20451;-81
2022/05/27 01:04:07;;;;;;;10.02;3.63;;;13.70;99.90;;;;;;5088041;28;20122;-82
2022/05/27 01:06:32;;;;;;;9.98;3.90;;;13.70;99.90;;;;;;5082410;28;20089;-81
2022/05/27 01:08:58;;;;;;;11.70;3.38;;;13.70;99.90;;;;;;5090410;28;20040;-82
2022/05/27 01:11:23;;;;;;;7.20;3.42;;;13.70;99.90;;;;;;5089176;28;20035;-81
2022/05/27 01:14:22;;;;;;;8.32;3.92;;;13.70;99.90;;;;;;5078334;28;20037;-82
2022/05/27 01:17:09;;;;;;;9.82;2.95;;;13.60;99.90;;;;;;5072108;28;20085;-82
2022/05/27 01:20:21;;;;;;;7.63;2.65;;;13.60;99.90;;;;;;5072966;28;20040;-81
2022/05/27 01:23:04;;;;;;;9.10;3.33;;;13.40;99.90;;;;;;5085726;28;20564;-80
2022/05/27 01:25:53;;;;;;;11.10;3.30;;;13.40;99.90;;;;;;5088456;28;20061;-82
2022/05/27 01:28:57;;;;;;;10.93;3.45;;;13.30;99.90;;;;;;5090395;28;20105;-82
2022/05/27 01:31:46;;;;;;;10.60;3.25;;;13.20;99.90;;;;;;5086308;28;20493;-82
2022/05/27 01:34:45;;;;;;;14.75;4.63;;;13.20;99.90;;;;;;5081392;28;20076;-83
2022/05/27 01:37:40;;;;;;;9.77;4.38;;;13.10;99.90;;;;;;5089734;28;20032;-82
2022/05/27 01:40:31;;;;;;;13.00;4.45;;;13.00;99.90;;;;;;5086989;28;20130;-82
2022/05/27 01:43:24;;;;;;;10.88;4.10;;;13.00;99.90;;;;;;5077776;28;20490;-83
2022/05/27 01:46:06;;;;;;;14.70;4.03;;;12.90;99.90;;;;;;5078094;28;20401;-83
2022/05/27 01:48:34;;;;;;;10.43;4.38;;;12.90;99.90;;;;;;5085007;28;20036;-83
2022/05/27 01:51:36;;;;;;;15.93;3.80;;;12.90;99.90;;;;;;5093106;28;20181;-82
2022/05/27 01:54:31;;;;;;;12.80;4.43;;;12.90;99.90;;;;;;5079783;28;20133;-82
2022/05/27 01:57:09;;;;;;;20.75;5.70;;;12.90;99.90;;;;;;5068476;28;20045;-82
2022/05/27 01:59:59;;;;;;;9.93;4.25;;;12.90;99.90;;;;;;5092499;28;20122;-82
2022/05/27 02:02:28;;;;;;;8.82;4.55;;;12.90;99.90;;;;;;5090444;28;20047;-83
2022/05/27 02:05:05;;;;;;;8.73;3.35;;;12.90;99.90;;;;;;5086539;28;20036;-83
2022/05/27 02:07:47;;;;;;;14.05;4.75;;;12.90;99.90;;;;;;5076574;28;20040;-82
2022/05/27 02:10:22;;;;;;;11.00;3.30;;;12.90;99.90;;;;;;5092740;28;20509;-82
2022/05/27 02:12:52;;;;;;;10.53;2.97;;;12.90;99.90;;;;;;5081198;28;20043;-83
2022/05/27 02:15:25;;;;;;;13.50;3.85;;;12.80;99.90;;;;;;5059894;28;20291;-83
2022/05/27 02:17:56;;;;;;;13.07;5.50;;;12.80;99.90;;;;;;5093267;28;20054;-83
2022/05/27 02:20:32;;;;;;;12.50;4.20;;;12.80;99.90;;;;;;5091994;28;20039;-83
2022/05/27 02:23:05;;;;;;;10.70;4.65;;;12.80;99.90;;;;;;5091816;28;20135;-83
2022/05/27 02:25:35;;;;;;;10.80;3.92;;;12.70;99.90;;;;;;5074275;28;20041;-83
2022/05/27 02:28:32;;;;;;;13.43;3.30;;;12.70;99.90;;;;;;5072952;28;20192;-83
2022/05/27 02:31:07;;;;;;;12.80;3.13;;;12.60;99.90;;;;;;5073997;28;20502;-83
2022/05/27 02:36:44;;;;;;;9.95;2.78;;;12.50;99.90;;;;;;5084167;28;20070;-84
2022/05/27 02:39:09;;;;;;;11.23;4.10;;;12.40;99.90;;;;;;5092832;28;20122;-84
2022/05/27 02:42:00;;;;;;;12.30;3.83;;;12.40;99.90;;;;;;5091842;28;20174;-84
2022/05/27 02:44:46;;;;;;;13.15;3.97;;;12.40;99.90;;;;;;5084152;28;20043;-84
2022/05/27 02:47:42;;;;;;;12.60;4.95;;;12.30;99.90;;;;;;5092510;28;20055;-84
2022/05/27 02:50:23;;;;;;;12.90;2.63;;;12.20;99.90;;;;;;5064173;28;20448;-84
2022/05/27 02:53:14;;;;;;;14.95;3.03;;;12.20;99.90;;;;;;5084336;28;20086;-83
2022/05/27 02:56:15;;;;;;;10.15;3.63;;;12.10;99.90;;;;;;5090438;28;20040;-84
2022/05/27 02:58:41;;;;;;;16.58;3.22;;;12.10;99.90;;;;;;5088680;28;20028;-83
2022/05/27 03:01:07;;;;;;;13.82;4.18;;;12.10;99.90;;;;;;5074523;28;20040;-84
2022/05/27 03:03:33;;;;;;;18.17;4.22;;;12.10;99.90;;;;;;5076448;28;20039;-83
2022/05/27 03:06:04;;;;;;;16.55;3.22;;;12.00;99.90;;;;;;5084370;28;20063;-83
2022/05/27 03:08:53;;;;;;;11.23;3.03;;;12.00;99.90;;;;;;5055405;28;20045;-84
2022/05/27 03:11:39;;;;;;;9.40;2.47;;;12.00;99.90;;;;;;5071433;28;20024;-84
2022/05/27 03:14:37;;;;;;;13.27;4.20;;;12.00;99.90;;;;;;5063403;28;20170;-84
2022/05/27 03:17:05;;;;;;;6.82;3.00;;;11.90;99.90;;;;;;5055901;28;20483;-84
2022/05/27 03:20:07;;;;;;;13.85;4.53;;;11.90;99.90;;;;;;5065527;28;20569;-84
2022/05/27 03:22:38;;;;;;;12.73;3.67;;;11.90;99.90;;;;;;5087487;28;20051;-84
2022/05/27 03:25:12;;;;;;;13.82;3.60;;;11.90;99.90;;;;;;5086369;28;20131;-84
2022/05/27 03:27:52;;;;;;;13.23;3.58;;;11.90;99.90;;;;;;5091737;28;20044;-84
2022/05/27 03:30:53;;;;;;;10.20;2.97;;;11.90;99.90;;;;;;5089967;28;20032;-83
2022/05/27 03:33:29;;;;;;;15.48;3.42;;;11.90;99.90;;;;;;5082685;28;20067;-84
2022/05/27 03:36:18;;;;;;;20.38;4.20;;;11.90;99.90;;;;;;5070984;28;20127;-84
2022/05/27 03:38:58;;;;;;;11.35;3.15;;;11.90;99.90;;;;;;5054684;28;20490;-83
2022/05/27 03:41:33;;;;;;;13.40;5.70;;;11.90;99.90;;;;;;5086868;28;20111;-84
2022/05/27 03:43:59;;;;;;;13.50;4.30;;;11.90;99.90;;;;;;5062716;28;20545;-83
2022/05/27 03:46:29;;;;;;;11.45;3.35;;;11.90;99.90;;;;;;5054569;28;20271;-84
2022/05/27 03:48:55;;;;;;;13.40;3.85;;;11.90;99.90;;;;;;5078694;28;20039;-84
2022/05/27 03:51:24;;;;;;;7.65;2.70;;;11.90;99.90;;;;;;5080111;28;20036;-84
2022/05/27 03:54:05;;;;;;;11.55;3.65;;;11.90;99.90;;;;;;5092849;28;20036;-84
2022/05/27 03:56:36;;;;;;;9.52;2.92;;;11.90;99.90;;;;;;5100585;28;20045;-84
2022/05/27 03:59:04;;;;;;;11.10;3.03;;;12.00;99.90;;;;;;5102215;28;20039;-84
2022/05/27 04:01:32;;;;;;;14.27;3.40;;;12.00;99.90;;;;;;5082304;28;20040;-85
2022/05/27 04:03:59;;;;;;;11.27;3.33;;;12.00;99.90;;;;;;5090791;28;20032;-84
2022/05/27 04:06:27;;;;;;;16.15;5.63;;;12.00;99.90;;;;;;5089254;28;20589;-83
2022/05/27 04:08:54;;;;;;;8.18;2.92;;;12.00;99.90;;;;;;5094103;28;20042;-85
2022/05/27 04:11:20;;;;;;;11.27;3.40;;;12.00;99.90;;;;;;5094733;28;20039;-83
2022/05/27 04:13:47;;;;;;;9.93;3.70;;;12.10;99.90;;;;;;5085956;28;20043;-84
2022/05/27 04:16:13;;;;;;;17.10;3.65;;;12.10;99.90;;;;;;5095545;28;20048;-83
2022/05/27 04:18:38;;;;;;;15.30;4.35;;;12.10;99.90;;;;;;5094674;28;20571;-84
2022/05/27 04:21:04;;;;;;;13.30;2.38;;;12.20;99.90;;;;;;5092149;28;20302;-84
2022/05/27 04:23:30;;;;;;;7.30;1.63;;;12.20;99.90;;;;;;5085176;28;20038;-83
2022/05/27 04:25:55;;;;;;;8.10;2.00;;;12.20;99.90;;;;;;5074335;28;20041;-83
2022/05/27 04:28:21;;;;;;;10.02;1.70;;;12.20;99.90;;;;;;5073370;28;20086;-84
2022/05/27 04:30:47;;;;;;;9.30;1.83;;;12.30;99.90;;;;;;5083039;28;20039;-82
2022/05/27 04:33:13;;;;;;;7.25;1.38;;;12.20;99.90;;;;;;5084023;28;20081;-83
2022/05/27 04:35:39;;;;;;;8.25;2.30;;;12.20;99.90;;;;;;5091639;28;20039;-83
2022/05/27 04:38:05;;;;;;;9.32;2.03;;;12.20;99.90;;;;;;5092478;28;20040;-84
2022/05/27 04:40:31;;;;;;;8.52;2.60;;;12.20;99.90;;;;;;5091618;28;20040;-84
2022/05/27 04:42:57;;;;;;;11.70;1.70;;;12.20;99.90;;;;;;5068342;28;20051;-83
2022/05/27 04:45:23;;;;;;;8.55;1.70;;;12.20;99.90;;;;;;5089204;28;20054;-83
2022/05/27 04:47:49;;;;;;;13.57;1.52;;;12.20;99.90;;;;;;5092035;28;20036;-83
2022/05/27 04:50:16;;;;;;;11.15;1.45;;;12.20;99.90;;;;;;5091384;28;20105;-83
2022/05/27 04:52:42;;;;;;;8.30;1.67;;;12.30;99.90;;;;;;5081202;28;20032;-83
2022/05/27 04:55:11;;;;;;;11.50;1.67;;;12.30;99.90;;;;;;5088731;28;20051;-84
2022/05/27 04:57:41;;;;;;;10.18;1.90;;;12.30;99.90;;;;;;5083112;28;20051;-82
2022/05/27 05:00:27;;;;;;;8.30;1.50;;;12.30;99.90;;;;;;5092405;28;20040;-84
2022/05/27 05:02:54;;;;;;;9.23;2.05;;;12.30;99.90;;;;;;5085495;28;20071;-83
2022/05/27 05:05:22;;;;;;;10.27;1.83;;;12.30;99.90;;;;;;5083653;28;20036;-82
2022/05/27 05:07:51;;;;;;;8.15;1.95;;;12.30;99.90;;;;;;5091277;28;20052;-84
2022/05/27 05:10:20;;;;;;;12.90;3.22;;;12.30;99.90;;;;;;5073584;28;20028;-83
2022/05/27 05:12:47;;;;;;;16.15;2.80;;;12.30;99.90;;;;;;5087732;28;20039;-84
2022/05/27 05:15:13;;;;;;;8.82;1.55;;;12.30;99.90;;;;;;5090722;28;20040;-84
2022/05/27 05:17:39;;;;;;;12.38;2.22;;;12.30;99.90;;;;;;5073653;28;20036;-84
2022/05/27 05:20:06;;;;;;;14.13;2.58;;;12.30;99.90;;;;;;5094259;28;20124;-84
2022/05/27 05:22:32;;;;;;;7.07;1.50;;;12.30;99.90;;;;;;5093595;28;20044;-84
2022/05/27 05:24:58;;;;;;;12.82;1.63;;;12.40;99.90;;;;;;5085942;28;20028;-84
2022/05/27 05:27:27;;;;;;;8.70;1.70;;;12.40;99.90;;;;;;5077661;28;20079;-84
2022/05/27 05:29:54;;;;;;;9.60;2.45;;;12.50;99.90;;;;;;5076026;28;20114;-83
2022/05/27 05:32:19;;;;;;;11.60;1.92;;;12.50;99.90;;;;;;5091922;28;20525;-83
2022/05/27 05:34:45;;;;;;;7.05;1.45;;;12.50;99.90;;;;;;5068807;28;20031;-84
2022/05/27 05:37:10;;;;;;;6.50;1.45;;;12.60;99.90;;;;;;5077775;28;20508;-83
2022/05/27 05:39:40;;;;;;;10.45;1.15;;;12.60;99.90;;;;;;5094339;28;20387;-85
2022/05/27 05:42:08;;;;;;;10.15;2.00;;;12.70;99.90;;;;;;5073814;28;20552;-84
2022/05/27 05:44:34;;;;;;;8.50;1.90;;;12.80;99.90;;;;;;5085547;28;20530;-84
2022/05/27 05:47:01;;;;;;;10.80;1.40;;;12.70;99.90;;;;;;5093620;28;20222;-84
2022/05/27 05:49:27;;;;;;;9.55;1.45;;;12.70;99.90;;;;;;5093764;28;20028;-82
2022/05/27 05:51:54;;;;;;;6.85;1.83;;;12.80;99.90;;;;;;5074405;28;20393;-84
2022/05/27 05:54:21;;;;;;;12.80;1.70;;;12.90;99.90;;;;;;5068025;28;20035;-84
2022/05/27 05:56:48;;;;;;;13.27;3.70;;;13.00;99.90;;;;;;5057089;28;20044;-84
2022/05/27 05:59:15;;;;;;;6.70;1.10;;;13.20;99.90;;;;;;5056764;28;20079;-84
2022/05/27 06:01:42;;;;;;;6.40;1.08;;;13.30;99.90;;;;;;5084691;28;20039;-84
2022/05/27 06:04:07;;;;;;;7.95;1.70;;;13.40;99.90;;;;;;5088757;28;20107;-84
2022/05/27 06:06:33;;;;;;;6.85;1.20;;;13.30;99.90;;;;;;5072164;28;20496;-83
2022/05/27 06:08:58;;;;;;;5.82;2.10;;;13.30;99.90;;;;;;5085140;28;20109;-83
2022/05/27 06:11:24;;;;;;;9.20;1.48;;;13.20;99.90;;;;;;5077224;28;20070;-83
2022/05/27 06:13:50;;;;;;;7.10;1.67;;;13.30;99.90;;;;;;5076049;28;20094;-83
2022/05/27 06:16:15;;;;;;;9.15;2.55;;;13.30;99.90;;;;;;5077816;28;20052;-82
2022/05/27 06:18:41;;;;;;;10.32;1.45;;;13.40;99.90;;;;;;5079464;28;20048;-82
2022/05/27 06:21:07;;;;;;;6.20;0.98;;;13.40;99.90;;;;;;5093630;28;20122;-82
2022/05/27 06:23:33;;;;;;;10.32;1.48;;;13.20;99.90;;;;;;5082140;28;20029;-81
2022/05/27 06:26:06;;;;;;;6.88;1.40;;;13.30;99.90;;;;;;5086931;28;20027;-82
2022/05/27 06:36:46;;;;;;;8.27;1.70;;;14.10;99.90;;;;;;5087631;28;20040;-82
2022/05/27 06:39:13;;;;;;;3.10;0.80;;;14.10;99.90;;;;;;5094412;28;20096;-82
2022/05/27 06:41:39;;;;;;;7.20;1.10;;;14.00;99.90;;;;;;5089457;28;20040;-82
2022/05/27 06:44:05;;;;;;;14.48;1.98;;;14.00;99.90;;;;;;5091573;28;20117;-82
2022/05/27 06:46:32;;;;;;;9.93;1.38;;;14.00;99.90;;;;;;5084508;28;20517;-82
2022/05/27 06:48:58;;;;;;;7.60;1.10;;;14.10;99.90;;;;;;5071813;28;20070;-81
2022/05/27 06:51:24;;;;;;;6.85;1.42;;;14.30;99.90;;;;;;5090911;28;20039;-82
2022/05/27 06:53:49;;;;;;;10.98;1.95;;;14.50;99.90;;;;;;5090813;28;20040;-81
2022/05/27 06:56:15;;;;;;;7.40;1.38;;;14.50;99.90;;;;;;5083535;28;20089;-82
2022/05/27 06:58:42;;;;;;;11.25;2.65;;;14.50;99.90;;;;;;5087274;28;20067;-81
2022/05/27 07:01:09;;;;;;;8.57;1.52;;;14.60;99.90;;;;;;5089599;28;20110;-82
2022/05/27 07:03:37;;;;;;;11.48;1.33;;;14.60;99.90;;;;;;5087316;28;20032;-81
2022/05/27 07:06:03;;;;;;;7.57;1.33;;;14.50;99.90;;;;;;5073321;28;20043;-80
2022/05/27 07:08:29;;;;;;;9.30;1.15;;;14.60;99.90;;;;;;5089187;28;20050;-81
2022/05/27 07:10:55;;;;;;;11.65;2.22;;;14.80;99.90;;;;;;5087920;28;20127;-81
2022/05/27 07:13:20;;;;;;;9.43;1.63;;;14.90;99.90;;;;;;5066442;28;20103;-80
2022/05/27 07:15:46;;;;;;;6.25;1.70;;;14.80;99.90;;;;;;5089836;28;20115;-81
2022/05/27 07:18:11;;;;;;;10.25;2.03;;;14.70;99.90;;;;;;5084800;28;20440;-81
2022/05/27 07:20:38;;;;;;;10.57;1.40;;;14.70;99.90;;;;;;5091315;28;20838;-81
2022/05/27 07:23:04;;;;;;;9.82;1.85;;;15.00;99.90;;;;;;5082933;28;20041;-80
2022/05/27 07:25:34;;;;;;;8.38;1.10;;;15.00;99.90;;;;;;5084057;28;20043;-81
2022/05/27 07:28:02;;;;;;;12.88;2.92;;;15.00;99.90;;;;;;5090273;28;20527;-81
2022/05/27 07:30:27;;;;;;;9.10;1.42;;;15.10;99.90;;;;;;5084968;28;20246;-81
2022/05/27 07:32:53;;;;;;;10.02;2.05;;;15.00;99.90;;;;;;5084404;28;20067;-81
2022/05/27 07:35:20;;;;;;;7.15;1.02;;;15.00;99.90;;;;;;5075707;28;20051;-80
2022/05/27 07:37:46;;;;;;;38.67;20.90;;;15.10;99.90;;;;;;5083253;28;20036;-80
2022/05/27 07:40:12;;;;;;;69.88;39.60;;;15.30;99.90;;;;;;5087793;28;20090;-81
2022/05/27 07:42:38;;;;;;;75.75;45.22;;;15.50;99.90;;;;;;5087025;28;20043;-80
2022/05/27 07:45:05;;;;;;;9.07;1.55;;;15.50;98.80;;;;;;5086606;28;20036;-80
2022/05/27 07:47:31;;;;;;;26.50;13.43;;;15.40;99.90;;;;;;5087000;28;20048;-80
2022/05/27 07:49:57;;;;;;;7.38;1.33;;;15.30;96.90;;;;;;5071807;28;20050;-80
2022/05/27 07:52:23;;;;;;;6.93;1.00;;;15.50;99.90;;;;;;5091883;28;20028;-81
2022/05/27 07:54:50;;;;;;;8.00;1.20;;;15.60;99.90;;;;;;5084766;28;20044;-81
2022/05/27 07:57:26;;;;;;;7.07;1.05;;;15.70;99.50;;;;;;5081783;28;20040;-81
2022/05/27 07:59:54;;;;;;;7.22;0.88;;;15.80;99.00;;;;;;5066571;28;20035;-81
2022/05/27 08:02:21;;;;;;;7.22;1.30;;;16.10;96.60;;;;;;5085458;28;20150;-81
2022/05/27 08:04:46;;;;;;;8.50;1.17;;;16.10;96.10;;;;;;5073317;28;20076;-80
2022/05/27 08:07:12;;;;;;;4.85;0.65;;;15.80;97.50;;;;;;5071761;28;20383;-80
2022/05/27 08:09:38;;;;;;;3.42;0.70;;;15.80;96.20;;;;;;5072672;28;20044;-81
2022/05/27 08:12:05;;;;;;;8.45;1.50;;;15.80;97.70;;;;;;5055573;28;20040;-81
2022/05/27 08:14:31;;;;;;;6.57;1.38;;;15.80;99.90;;;;;;5072924;28;20052;-80
2022/05/27 08:16:57;;;;;;;3.92;1.02;;;15.70;99.90;;;;;;5074589;28;20169;-81
2022/05/27 08:19:22;;;;;;;7.00;0.77;;;15.50;99.90;;;;;;5076252;28;20093;-80
2022/05/27 08:21:48;;;;;;;9.20;1.55;;;15.50;99.90;;;;;;5092432;28;20144;-79
2022/05/27 08:24:14;;;;;;;8.38;1.27;;;15.80;98.10;;;;;;5092345;28;20328;-80
2022/05/27 08:26:39;;;;;;;5.95;0.85;;;16.00;95.30;;;;;;5092328;28;20044;-80
2022/05/27 08:29:06;;;;;;;7.57;1.20;;;16.30;95.30;;;;;;5076775;28;20135;-80
2022/05/27 08:31:32;;;;;;;10.63;1.85;;;16.30;95.10;;;;;;5091801;28;20089;-80
2022/05/27 08:39:26;;;;;;;7.65;1.42;;;16.30;99.60;;;;;;5092147;28;20048;-80
2022/05/27 08:42:03;;;;;;;6.55;1.77;;;16.40;99.90;;;;;;5075510;28;20127;-79
2022/05/27 08:45:08;;;;;;;3.80;0.80;;;16.80;92.00;;;;;;5092459;28;20040;-81
2022/05/27 08:47:43;;;;;;;5.97;1.02;;;16.70;91.30;;;;;;5078950;28;20052;-80
2022/05/27 08:50:47;;;;;;;6.55;0.88;;;16.60;94.40;;;;;;5063520;28;20079;-80
2022/05/27 08:53:28;;;;;;;6.50;1.52;;;16.30;96.10;;;;;;5016363;28;20041;-80
2022/05/27 09:01:46;;;;;;;6.97;2.03;;;16.70;95.20;;;;;;5074058;28;20048;-80
2022/05/27 09:04:17;;;;;;;10.20;1.88;;;16.70;97.70;;;;;;5071010;28;20074;-80
2022/05/27 09:06:51;;;;;;;7.72;1.13;;;16.80;95.90;;;;;;5071994;28;20041;-79
2022/05/27 09:09:21;;;;;;;10.40;2.20;;;16.60;94.30;;;;;;5074888;28;20028;-79
2022/05/27 09:12:06;;;;;;;8.88;0.98;;;16.60;96.20;;;;;;5074780;28;20040;-80
2022/05/27 09:14:35;;;;;;;5.05;1.45;;;16.80;95.30;;;;;;5061034;28;20385;-79
2022/05/27 09:17:07;;;;;;;5.60;0.73;;;17.00;91.10;;;;;;5095090;22;20557;-79
2022/05/27 09:19:51;;;;;;;7.95;1.92;;;17.10;91.30;;;;;;5054282;28;20337;-80
2022/05/27 09:22:45;;;;;;;7.35;1.20;;;17.00;82.80;;;;;;5053224;28;20153;-80
2022/05/27 09:25:28;;;;;;;6.18;0.85;;;16.90;89.10;;;;;;5051359;28;20053;-80
2022/05/27 09:28:03;;;;;;;4.85;1.20;;;16.90;85.70;;;;;;5050833;28;20037;-80
2022/05/27 09:30:32;;;;;;;13.30;1.65;;;16.80;91.60;;;;;;5051960;28;20037;-79
2022/05/27 09:33:05;;;;;;;6.22;1.55;;;16.60;91.90;;;;;;5051674;28;20466;-80
2022/05/27 09:35:50;;;;;;;5.45;0.80;;;16.60;91.40;;;;;;5051126;28;20529;-79
2022/05/27 09:38:21;;;;;;;6.67;1.53;;;16.60;83.00;;;;;;5034957;28;20479;-79
2022/05/27 09:40:56;;;;;;;6.35;0.57;;;16.60;88.30;;;;;;5033807;28;20037;-79
2022/05/27 09:43:42;;;;;;;;;;;16.80;90.20;;;;;;5051790;28;20056;-80
2022/05/27 09:46:24;;;;;;;5.57;0.50;;;17.00;87.70;;;;;;5050746;28;19917;-79
2022/05/27 09:48:50;;;;;;;3.88;0.63;;;17.20;88.50;;;;;;5051014;28;20449;-80
2022/05/27 09:51:17;;;;;;;2.80;0.80;;;17.10;88.40;;;;;;5051176;28;20041;-79
2022/05/27 09:53:49;;;;;;;10.20;1.55;;;17.10;87.40;;;;;;5050979;28;20043;-79
2022/05/27 09:56:17;;;;;;;2.75;0.40;;;17.20;85.90;;;;;;5052753;28;20041;-79
2022/05/27 09:58:45;;;;;;;5.00;0.50;;;16.90;86.90;;;;;;5050725;28;20049;-79
2022/05/27 10:01:26;;;;;;;4.53;1.00;;;16.50;87.80;;;;;;5043932;28;20045;-79
2022/05/27 10:04:06;;;;;;;4.72;0.93;;;16.80;85.20;;;;;;5026950;28;20056;-79
2022/05/27 10:06:35;;;;;;;5.97;0.80;;;16.90;85.00;;;;;;5046472;28;20434;-79
2022/05/27 10:09:07;;;;;;;2.63;0.40;;;16.60;82.50;;;;;;5052054;28;20036;-79
2022/05/27 10:11:35;;;;;;;5.65;0.95;;;16.70;83.10;;;;;;5053428;28;20127;-79
2022/05/27 10:14:23;;;;;;;3.40;0.60;;;16.80;84.90;;;;;;5054897;28;20044;-79
2022/05/27 10:17:11;;;;;;;7.72;0.90;;;16.70;80.80;;;;;;5047501;28;20423;-78
2022/05/27 10:19:38;;;;;;;5.97;1.45;;;16.30;81.30;;;;;;5053811;28;20359;-78
2022/05/27 10:22:19;;;;;;;99.35;63.90;;;16.20;87.40;;;;;;5049073;28;20033;-78
2022/05/27 10:24:54;;;;;;;18.98;2.88;;;16.40;86.90;;;;;;5053537;28;20558;-78
2022/05/27 10:27:22;;;;;;;12.98;2.72;;;16.70;88.80;;;;;;5053613;28;20391;-78
2022/05/27 10:30:00;;;;;;;50.33;37.03;;;16.50;90.30;;;;;;5052375;28;20044;-78
2022/05/27 10:32:41;;;;;;;6.68;1.08;;;16.50;83.70;;;;;;5043470;28;20547;-78
2022/05/27 10:35:15;;;;;;;2.75;1.73;;;16.60;86.00;;;;;;5053107;28;20498;-78
2022/05/27 10:38:25;;;;;;;5.72;0.45;;;17.00;85.50;;;;;;5052232;28;20408;-78
2022/05/27 10:41:03;;;;;;;4.70;0.60;;;17.30;78.30;;;;;;5018557;28;20061;-78
2022/05/27 10:43:46;;;;;;;5.85;1.30;;;17.40;79.00;;;;;;5051830;28;20040;-78
2022/05/27 10:46:15;;;;;;;9.98;0.90;;;17.40;77.50;;;;;;5044557;28;20035;-78
2022/05/27 10:49:00;;;;;;;6.10;0.60;;;17.30;85.50;;;;;;5051936;28;20047;-78
2022/05/27 10:51:45;;;;;;;6.93;0.77;;;17.00;80.60;;;;;;5042908;28;20376;-78
2022/05/27 10:54:25;;;;;;;6.83;0.70;;;17.00;78.20;;;;;;5052701;28;20064;-78
2022/05/27 11:03:07;;;;;;;7.60;0.60;;;17.10;80.70;;;;;;5052733;28;20080;-78
2022/05/27 11:08:44;;;;;;;3.63;0.88;;;17.50;78.80;;;;;;5113201;22;20044;-79
2022/05/27 11:11:58;;;;;;;4.68;1.02;;;17.90;81.00;;;;;;5047873;28;20168;-79
2022/05/27 11:15:18;;;;;;;5.88;0.98;;;17.50;77.30;;;;;;5034393;28;20484;-78
2022/05/27 11:18:25;;;;;;;;;;;;;;;;;;;;;
2022/05/27 11:21:51;;;;;;;3.78;0.52;;;17.30;76.60;;;;;;5090059;28;20032;-79
2022/05/27 11:24:48;;;;;;;5.47;0.60;;;17.10;76.90;;;;;;5057247;28;20094;-79
2022/05/27 11:27:44;;;;;;;3.15;0.63;;;17.20;76.20;;;;;;5091967;28;20123;-78
2022/05/27 11:30:38;;;;;;;6.47;0.70;;;17.60;79.90;;;;;;5092496;28;20041;-78
2022/05/27 11:37:09;;;;;;;6.93;0.60;;;18.50;78.50;;;;;;5035135;28;20550;-79
2022/05/27 11:40:34;;;;;;;4.47;0.70;;;18.40;73.60;;;;;;5059505;28;20052;-78
2022/05/27 11:43:37;;;;;;;5.30;0.88;;;17.80;74.50;;;;;;5044932;28;20507;-78
2022/05/27 11:46:08;;;;;;;;;;;17.20;75.10;;;;;;5033597;28;20041;-78
2022/05/27 11:49:18;;;;;;;6.55;1.05;;;16.70;75.60;;;;;;5033655;28;20021;-78
2022/05/27 11:52:03;;;;;;;6.53;1.10;;;16.40;77.20;;;;;;5038255;28;20036;-78
2022/05/27 12:02:00;;;;;;;6.35;0.70;;;17.60;79.00;;;;;;5061572;28;20570;-78
2022/05/27 12:05:08;;;;;;;7.00;1.10;;;18.40;79.90;;;;;;5071178;28;20041;-78
2022/05/27 12:08:30;;;;;;;4.68;0.70;;;18.80;73.40;;;;;;5070544;28;20406;-79
2022/05/27 12:19:02;;;;;;;6.80;1.17;;;17.10;74.80;;;;;;4986855;28;20046;-79
2022/05/27 12:25:06;;;;;;;4.20;0.60;;;16.90;78.00;;;;;;5051113;28;20372;-78
2022/05/27 12:27:39;;;;;;;6.22;1.45;;;17.70;78.20;;;;;;5062348;28;20458;-78
2022/05/27 12:30:35;;;;;;;6.78;0.65;;;17.90;78.70;;;;;;5050607;28;20041;-78
2022/05/27 12:33:04;;;;;;;8.38;1.02;;;17.50;75.70;;;;;;5050664;28;20041;-78
2022/05/27 12:39:28;;;;;;;8.98;2.22;;;16.50;79.10;;;;;;5051940;28;20143;-78
2022/05/27 12:42:50;;;;;;;7.95;1.10;;;16.40;80.70;;;;;;5035130;28;20037;-78
2022/05/27 12:46:00;;;;;;;5.63;0.90;;;16.70;79.00;;;;;;4998779;28;20041;-78
2022/05/27 12:48:58;;;;;;;;;;;;;;;;;;;;;
2022/05/27 12:55:31;;;;;;;6.57;0.75;;;17.50;77.70;;;;;;5067348;28;20047;-78
2022/05/27 13:01:12;;;;;;;5.65;0.90;;;17.70;78.30;;;;;;5070094;28;20052;-78
2022/05/27 13:04:30;;;;;;;6.90;1.23;;;18.00;74.20;;;;;;5052865;28;20502;-78
2022/05/27 13:08:08;;;;;;;5.68;1.33;;;18.20;74.70;;;;;;5050082;28;20058;-78
2022/05/27 13:10:55;;;;;;;7.78;1.85;;;18.70;74.80;;;;;;5052562;28;20094;-78
2022/05/27 13:17:33;;;;;;;5.72;1.00;;;18.00;72.90;;;;;;5089888;22;20076;-78
2022/05/27 13:20:28;;;;;;;6.47;1.20;;;17.20;74.20;;;;;;5093702;28;20080;-78
2022/05/27 13:23:02;;;;;;;9.17;1.27;;;16.90;76.90;;;;;;5072727;28;20056;-78
2022/05/27 13:25:36;;;;;;;4.00;0.57;;;16.70;77.30;;;;;;5093676;28;20110;-78
2022/05/27 13:28:08;;;;;;;4.07;0.70;;;16.60;77.90;;;;;;5073688;28;20051;-78
2022/05/27 13:30:49;;;;;;;3.85;0.70;;;16.60;76.90;;;;;;5073777;28;20043;-78
2022/05/27 13:33:18;;;;;;;4.80;1.30;;;16.50;76.40;;;;;;5073605;28;20036;-78
2022/05/27 13:35:46;;;;;;;8.40;1.27;;;16.30;77.20;;;;;;5072450;28;20044;-77
2022/05/27 13:38:15;;;;;;;8.05;1.70;;;16.10;77.20;;;;;;5069448;28;20123;-78
2022/05/27 13:40:43;;;;;;;4.18;0.57;;;15.90;78.20;;;;;;5055587;28;20120;-78
2022/05/27 13:43:30;;;;;;;8.38;1.45;;;15.90;79.60;;;;;;5057229;28;20048;-77
2022/05/27 13:46:28;;;;;;;4.97;0.68;;;15.80;79.60;;;;;;5056411;28;20144;-77
2022/05/27 13:48:58;;;;;;;7.85;1.35;;;15.80;80.00;;;;;;5056832;28;20056;-77
2022/05/27 13:51:25;;;;;;;8.85;1.30;;;15.50;80.10;;;;;;5071255;28;20052;-77
2022/05/27 13:53:52;;;;;;;8.45;1.75;;;15.50;81.70;;;;;;5076584;28;20044;-77
2022/05/27 13:56:22;;;;;;;5.63;1.30;;;15.70;82.30;;;;;;5077976;28;20123;-77
2022/05/27 13:59:01;;;;;;;11.55;2.00;;;15.90;82.20;;;;;;5078172;28;20077;-77
2022/05/27 14:01:51;;;;;;;5.18;1.08;;;16.10;80.40;;;;;;5079114;28;20039;-78
2022/05/27 14:04:32;;;;;;;9.00;0.82;;;15.90;79.50;;;;;;5061579;28;20036;-77
2022/05/27 14:06:59;;;;;;;5.43;0.88;;;16.20;81.20;;;;;;5073342;28;20049;-77
2022/05/27 14:09:34;;;;;;;8.00;1.17;;;16.60;80.80;;;;;;5095246;28;20036;-77
2022/05/27 14:12:01;;;;;;;7.15;1.42;;;16.60;79.60;;;;;;5060553;28;20097;-77
2022/05/27 14:14:44;;;;;;;8.63;1.65;;;16.30;80.90;;;;;;5076589;28;20534;-77
2022/05/27 14:17:14;;;;;;;6.65;0.95;;;16.30;82.00;;;;;;5076936;28;20109;-78
2022/05/27 14:19:40;;;;;;;5.03;1.08;;;16.30;82.20;;;;;;5093425;28;20075;-77
2022/05/27 14:24:50;;;;;;;7.50;1.42;;;16.30;82.00;;;;;;5076685;28;20086;-77
2022/05/27 14:27:22;;;;;;;6.45;1.52;;;16.20;81.70;;;;;;5076525;28;20036;-77
2022/05/27 14:29:51;;;;;;;6.60;1.70;;;16.10;81.10;;;;;;5076673;28;20371;-77
2022/05/27 14:32:22;;;;;;;5.53;0.82;;;15.90;80.40;;;;;;5076000;28;20506;-77
2022/05/27 14:34:54;;;;;;;7.30;0.60;;;15.80;80.90;;;;;;5076203;28;20048;-77
2022/05/27 14:37:22;;;;;;;3.95;0.43;;;15.90;81.20;;;;;;5075789;28;20113;-78